Accueil
METAR-TAF:

METAR-TAF

Aéroports :

Locarno, Suisse

latitude: 46-09-55N, longitude: 8-52-40E, altitude: 198 m

Observation

Le bulletin a été fait il y a 58 minutes, à 23:50 UTC
Vent 2 kt de direction variable
Température 13°C
Humidité 88%
Pression 1016 hPa
Visibilité 10 km ou plus

METAR: LSZL 232350Z AUTO VRB02KT 9999NDV NCD 13/11 Q1016 RMK

Heure: 02:48 (00:48 UTC)

Prévision

Le bulletin a été fait il y a 7 heures et 23 minutes, à 17:25 UTC
Prévision valable du 23 à 18 UTC au 24 à 03 UTC
Vent 3 kt de direction variable
Visibilité 10 km ou plus
Quelques nuages à une hauteur de 4500 ft
Nuages épars à une hauteur de 7500 ft
Temporairement
du 23 à 18 UTC au 23 à 20 UTC
Quelques nuages à une hauteur de 4500 ft, Cumulus congestus.
averses de pluie

TAF: LSZL 231725Z 2318/2403 VRB03KT 9999 FEW045 SCT075 TEMPO 2318/2320 SHRA FEW045TCU

Observations et prévisions météorologiques de plus de 4000 aéroports (messages METAR et TAF).

Les stations disponibles sont représentées par des disques jaunes et rouges sur la carte.

Passer la souris dessus pour voir le nom de la station.

Cliquer dessus pour voir les observations et prévisions météorologiques.

Pour changer de carte: cliquez sur les boutons verts avec une croix noire pour zoomer, sur le bouton vert avec un tiret pour effectuer un zoom arrière, ou sur les flèches vertes pour les cartes adjacentes.


METAR-TAF: